Time;durP1;ratioP1;P1;durP2;ratioP2;P2;SDS_P1;SDS_P2;PMS_P1;PMS_P2;Temp;Humidity;BMP_temperature;BMP_pressure;BME280_temperature;BME280_humidity;BME280_pressure;Samples;Min_cycle;Max_cycle;Signal;HPM_P1;HPM_P2
2023/03/12 00:03:25;;;;;;;3.65;2.40;;;;;;;-0.95;76.86;99524.84;10498228;28;20041;-71
2023/03/12 00:08:27;;;;;;;5.55;2.55;;;;;;;-0.88;76.18;99530.06;10498292;28;20049;-72
2023/03/12 00:13:29;;;;;;;4.63;2.10;;;;;;;-0.87;76.43;99528.34;10499544;28;20199;-72
2023/03/12 00:18:30;;;;;;;3.78;1.95;;;;;;;-0.74;74.89;99531.84;10499648;28;20049;-72
2023/03/12 00:23:32;;;;;;;4.03;2.25;;;;;;;-0.83;75.39;99535.25;10498073;28;20444;-72
2023/03/12 00:28:35;;;;;;;7.63;2.35;;;;;;;-0.82;74.95;99542.13;10480441;28;20051;-72
2023/03/12 00:33:36;;;;;;;3.75;2.10;;;;;;;-0.79;74.68;99547.31;10480776;28;20409;-72
2023/03/12 00:38:38;;;;;;;5.32;2.08;;;;;;;-0.92;75.52;99546.38;10488732;28;20040;-73
2023/03/12 00:43:40;;;;;;;4.20;2.25;;;;;;;-0.90;75.54;99539.50;10506949;28;20408;-72
2023/03/12 00:48:42;;;;;;;2.30;1.75;;;;;;;-0.86;74.65;99542.97;10506030;28;20508;-71
2023/03/12 00:53:44;;;;;;;3.22;1.75;;;;;;;-0.94;75.34;99545.47;10487837;28;20040;-72
2023/03/12 00:58:46;;;;;;;3.92;1.92;;;;;;;-0.96;75.29;99544.63;10488205;28;20497;-72
2023/03/12 01:03:50;;;;;;;4.03;2.38;;;;;;;-0.95;74.73;99542.91;10505281;28;20545;-72
2023/03/12 01:08:54;;;;;;;2.72;1.60;;;;;;;-0.92;74.40;99538.63;10487403;28;20510;-73
2023/03/12 01:13:55;;;;;;;3.40;2.20;;;;;;;-0.87;73.92;99541.25;10486792;28;20132;-73
2023/03/12 01:18:59;;;;;;;5.82;2.08;;;;;;;-0.90;73.78;99544.66;10487674;28;20044;-71
2023/03/12 01:24:02;;;;;;;2.22;1.60;;;;;;;-0.93;73.64;99544.66;10504322;28;20041;-72
2023/03/12 01:29:03;;;;;;;6.60;1.85;;;;;;;-1.02;74.09;99539.41;10504576;28;20045;-71
2023/03/12 01:34:05;;;;;;;2.50;1.42;;;;;;;-0.93;73.51;99546.34;10503968;28;20051;-71
2023/03/12 01:39:07;;;;;;;4.82;1.73;;;;;;;-0.93;73.18;99547.22;10470120;28;20045;-71
2023/03/12 01:44:13;;;;;;;6.57;1.73;;;;;;;-0.95;72.71;99559.25;10504349;28;20044;-71
2023/03/12 01:49:24;;;;;;;5.22;2.20;;;;;;;-0.93;72.86;99548.91;10485541;28;20075;-71
2023/03/12 01:54:38;;;;;;;5.97;1.40;;;;;;;-0.94;72.70;99558.38;10503439;28;20090;-71
2023/03/12 01:59:45;;;;;;;6.68;2.45;;;;;;;-0.92;72.56;99550.69;10487749;28;20429;-71
2023/03/12 02:04:50;;;;;;;3.00;1.63;;;;;;;-0.86;71.70;99548.13;10485265;28;20095;-72
2023/03/12 02:09:52;;;;;;;3.72;1.88;;;;;;;-0.93;71.99;99554.09;10484893;28;20037;-72
2023/03/12 02:14:54;;;;;;;7.95;1.60;;;;;;;-0.89;71.47;99548.09;10485473;28;20047;-72
2023/03/12 02:20:11;;;;;;;2.08;1.20;;;;;;;-0.84;70.95;99546.41;10502981;28;20082;-72
2023/03/12 02:25:16;;;;;;;3.15;1.40;;;;;;;-0.94;71.25;99544.63;10484863;28;20044;-72
2023/03/12 02:30:20;;;;;;;2.90;1.55;;;;;;;-0.88;70.91;99548.13;10501652;28;20048;-72
2023/03/12 02:35:22;;;;;;;3.33;2.17;;;;;;;-0.93;71.30;99548.91;10501732;28;20040;-73
2023/03/12 02:40:36;;;;;;;5.65;1.40;;;;;;;-0.86;71.16;99553.28;10483886;28;20043;-72
2023/03/12 02:45:38;;;;;;;3.00;1.02;;;;;;;-0.73;69.29;99567.13;10484233;28;20068;-72
2023/03/12 02:50:41;;;;;;;1.70;1.20;;;;;;;-0.88;70.37;99566.19;10483174;28;20040;-72
2023/03/12 02:55:43;;;;;;;3.03;1.10;;;;;;;-0.90;70.46;99567.00;10483176;28;20139;-72
2023/03/12 03:00:45;;;;;;;2.08;1.13;;;;;;;-0.86;69.96;99577.38;10482482;28;20045;-72
2023/03/12 03:05:47;;;;;;;2.25;1.00;;;;;;;-0.93;70.45;99574.72;10484505;28;20052;-71
2023/03/12 03:10:51;;;;;;;7.35;1.40;;;;;;;-1.04;71.22;99578.09;10482455;28;20048;-71
2023/03/12 03:15:52;;;;;;;3.63;1.08;;;;;;;-1.07;71.33;99582.38;10482855;28;20053;-71
2023/03/12 03:21:00;;;;;;;3.50;1.25;;;;;;;-1.10;71.88;99578.06;10482051;28;20440;-72
2023/03/12 03:26:03;;;;;;;2.65;1.00;;;;;;;-1.22;72.26;99588.28;10484019;28;20049;-71
2023/03/12 03:31:06;;;;;;;3.83;1.23;;;;;;;-1.03;70.67;99599.59;10569157;22;20043;-69
2023/03/12 03:36:13;;;;;;;4.78;1.70;;;;;;;-1.15;71.19;99592.63;10565414;28;20047;-69
2023/03/12 03:41:22;;;;;;;3.05;1.23;;;;;;;-1.21;71.85;99600.31;10565117;28;20039;-69
2023/03/12 03:46:25;;;;;;;2.33;1.23;;;;;;;-1.11;70.93;99604.69;10564954;28;20423;-70
2023/03/12 03:51:32;;;;;;;2.72;1.10;;;;;;;-1.09;70.18;99609.88;10564712;28;20039;-70
2023/03/12 03:56:40;;;;;;;5.45;1.30;;;;;;;-1.12;70.83;99613.28;10564694;28;20451;-70
2023/03/12 04:01:43;;;;;;;2.90;1.20;;;;;;;-1.10;69.94;99603.00;10564246;28;20085;-69
2023/03/12 04:06:45;;;;;;;3.08;1.13;;;;;;;-1.04;69.92;99609.06;10564087;28;20109;-69
2023/03/12 04:11:48;;;;;;;3.35;1.20;;;;;;;-1.00;69.36;99614.25;10562798;28;20048;-69
2023/03/12 04:16:50;;;;;;;2.60;1.02;;;;;;;-1.07;70.06;99618.47;10564046;28;20100;-69
2023/03/12 04:21:52;;;;;;;3.72;1.27;;;;;;;-0.97;69.10;99617.72;10582559;28;20043;-69
2023/03/12 04:26:53;;;;;;;2.47;1.30;;;;;;;-0.98;68.88;99621.13;10564053;28;20048;-68
2023/03/12 04:31:55;;;;;;;5.63;1.20;;;;;;;-1.15;69.31;99609.81;10563565;28;20047;-69
2023/03/12 04:36:59;;;;;;;3.28;0.93;;;;;;;-1.04;69.00;99616.78;10563704;28;20047;-68
2023/03/12 04:42:01;;;;;;;1.95;1.00;;;;;;;-1.09;68.79;99615.91;10563806;28;20134;-69
2023/03/12 04:47:03;;;;;;;3.22;1.20;;;;;;;-1.05;68.73;99617.66;10581684;28;20036;-69
2023/03/12 04:52:05;;;;;;;2.75;0.93;;;;;;;-1.19;69.44;99626.13;10560414;28;20508;-70
2023/03/12 04:57:07;;;;;;;3.08;1.00;;;;;;;-1.16;69.33;99633.88;10559950;28;20078;-70
2023/03/12 05:02:09;;;;;;;2.63;1.30;;;;;;;-1.09;68.48;99628.78;10559374;28;20066;-70
2023/03/12 05:07:11;;;;;;;2.00;0.90;;;;;;;-1.08;68.41;99638.25;10560927;28;20047;-69
2023/03/12 05:12:13;;;;;;;2.83;1.00;;;;;;;-1.18;69.24;99646.75;10563309;28;20450;-68
2023/03/12 05:17:15;;;;;;;3.95;1.00;;;;;;;-1.28;69.36;99639.81;10563177;28;20477;-69
2023/03/12 05:22:17;;;;;;;6.82;1.52;;;;;;;-1.27;69.44;99641.53;10567831;28;20040;-69
2023/03/12 05:27:19;;;;;;;1.75;0.88;;;;;;;-1.59;71.35;99636.91;10571133;28;20043;-69
2023/03/12 05:32:22;;;;;;;3.85;1.20;;;;;;;-1.40;69.98;99643.13;10571235;28;20467;-69
2023/03/12 05:37:24;;;;;;;2.47;1.05;;;;;;;-1.38;69.67;99646.56;10588634;28;20066;-69
2023/03/12 05:42:26;;;;;;;2.38;1.00;;;;;;;-1.39;69.96;99651.72;10570114;28;20062;-69
2023/03/12 05:47:30;;;;;;;3.15;1.05;;;;;;;-1.46;70.87;99655.06;10571236;28;20069;-70
2023/03/12 05:52:31;;;;;;;5.32;1.67;;;;;;;-1.53;70.83;99643.84;10571911;28;20036;-69
2023/03/12 05:57:33;;;;;;;3.03;1.02;;;;;;;-1.52;70.62;99655.88;10589737;28;20485;-70
2023/03/12 06:02:35;;;;;;;5.35;1.15;;;;;;;-1.56;71.28;99664.41;10588971;28;20059;-69
2023/03/12 06:07:38;;;;;;;9.30;1.65;;;;;;;-1.46;70.01;99655.06;10588730;28;20439;-69
2023/03/12 06:12:40;;;;;;;2.63;0.98;;;;;;;-1.38;69.54;99654.28;10566788;28;20043;-69
2023/03/12 06:17:42;;;;;;;3.45;1.10;;;;;;;-0.87;68.32;99649.63;10583004;28;20039;-71
2023/03/12 06:22:45;;;;;;;5.65;1.40;;;;;;;-0.23;65.01;99659.50;10564287;28;20051;-71
2023/03/12 06:27:47;;;;;;;4.13;0.98;;;;;;;0.79;60.75;99652.13;10583821;28;20542;-70
2023/03/12 06:32:48;;;;;;;2.15;0.95;;;;;;;0.47;61.00;99663.25;10585166;28;20081;-69
2023/03/12 06:37:50;;;;;;;3.33;1.30;;;;;;;0.30;61.32;99659.75;10586075;28;20044;-69
2023/03/12 06:42:52;;;;;;;3.72;1.80;;;;;;;0.19;61.69;99659.72;10587879;28;20106;-70
2023/03/12 06:47:54;;;;;;;5.20;1.50;;;;;;;0.06;62.49;99664.84;10587595;28;20046;-70
2023/03/12 06:52:56;;;;;;;4.85;1.13;;;;;;;0.30;62.28;99670.09;10571267;28;20051;-70
2023/03/12 06:57:57;;;;;;;2.80;1.20;;;;;;;0.86;59.65;99660.78;10587740;28;20051;-70
2023/03/12 07:03:00;;;;;;;3.13;1.20;;;;;;;1.08;59.47;99653.88;10587260;28;20043;-69
2023/03/12 07:08:02;;;;;;;3.47;1.00;;;;;;;0.77;60.92;99663.34;10585554;28;20050;-69
2023/03/12 07:13:05;;;;;;;3.33;1.02;;;;;;;0.69;60.04;99653.84;10584836;28;20073;-69
2023/03/12 07:18:09;;;;;;;2.28;1.02;;;;;;;0.88;59.78;99649.53;10584101;28;20044;-67
2023/03/12 07:23:11;;;;;;;4.97;0.98;;;;;;;1.05;61.45;99651.28;10565743;28;20385;-69
2023/03/12 07:28:13;;;;;;;1.67;0.90;;;;;;;1.17;59.34;99654.75;10584180;28;20067;-69
2023/03/12 07:33:20;;;;;;;4.93;1.20;;;;;;;1.34;59.13;99649.56;10583539;28;20036;-69
2023/03/12 07:38:22;;;;;;;;;;;;;;;1.36;59.16;99658.19;10583744;28;20492;-68
2023/03/12 07:43:24;;;;;;;11.25;1.48;;;;;;;1.49;58.75;99651.28;10583839;28;19919;-69
2023/03/12 07:48:27;;;;;;;3.28;1.02;;;;;;;1.81;59.33;99658.97;10564952;28;20047;-68
2023/03/12 07:53:29;;;;;;;3.75;1.25;;;;;;;2.11;57.97;99662.34;10582708;28;20044;-68
2023/03/12 07:58:31;;;;;;;5.90;1.15;;;;;;;2.30;57.53;99666.59;10582646;28;20450;-69
2023/03/12 08:03:33;;;;;;;2.25;1.17;;;;;;;2.46;58.45;99663.06;10582477;28;20040;-69
2023/03/12 08:08:37;;;;;;;2.70;1.10;;;;;;;2.43;58.32;99659.63;10564022;28;20071;-68
2023/03/12 08:13:38;;;;;;;3.70;1.20;;;;;;;2.76;57.39;99663.78;10582227;28;20117;-68
2023/03/12 08:18:41;;;;;;;2.30;1.02;;;;;;;3.02;55.13;99663.63;10581300;28;20043;-69
2023/03/12 08:23:43;;;;;;;2.78;1.08;;;;;;;3.09;54.75;99667.88;10564312;28;20405;-68
2023/03/12 08:28:45;;;;;;;1.23;0.90;;;;;;;3.19;53.90;99671.28;10582874;28;20492;-70
2023/03/12 08:33:47;;;;;;;1.95;0.80;;;;;;;3.36;53.45;99678.91;10581702;28;20413;-68
2023/03/12 08:38:48;;;;;;;5.43;1.40;;;;;;;3.80;54.32;99678.50;10582058;28;20528;-69
2023/03/12 08:43:50;;;;;;;2.60;1.00;;;;;;;4.05;49.81;99671.31;10582119;28;20377;-68
2023/03/12 08:48:52;;;;;;;2.70;0.85;;;;;;;4.03;51.99;99671.34;10581384;28;20048;-68
2023/03/12 08:53:53;;;;;;;2.38;0.85;;;;;;;4.10;53.16;99672.13;10581238;28;20036;-68
2023/03/12 08:58:57;;;;;;;2.75;0.93;;;;;;;4.03;53.36;99667.91;10589179;28;20044;-68
2023/03/12 09:04:01;;;;;;;2.63;1.23;;;;;;;4.07;51.35;99660.91;10590520;28;20054;-69
2023/03/12 09:09:03;;;;;;;2.63;0.90;;;;;;;4.06;51.01;99667.84;10589676;28;20047;-68
2023/03/12 09:14:06;;;;;;;3.83;1.30;;;;;;;4.19;50.71;99668.56;10589542;28;20043;-67
2023/03/12 09:19:28;;;;;;;4.10;0.80;;;;;;;4.15;50.86;99669.47;10589849;28;20043;-69
2023/03/12 09:24:29;;;;;;;4.60;1.50;;;;;;;4.40;51.64;99664.84;10589607;28;20399;-69
2023/03/12 09:29:32;;;;;;;2.88;1.10;;;;;;;4.83;50.33;99659.06;10601854;22;20043;-72
2023/03/12 09:34:34;;;;;;;3.55;1.38;;;;;;;4.69;51.48;99656.63;10588678;28;20071;-72
2023/03/12 09:39:35;;;;;;;2.45;0.90;;;;;;;4.79;50.61;99653.03;10570048;28;20127;-72
2023/03/12 09:44:44;;;;;;;3.40;1.20;;;;;;;5.13;46.05;99640.34;10587672;28;20040;-71
2023/03/12 09:49:55;;;;;;;3.45;1.10;;;;;;;5.24;45.84;99641.03;10588638;28;20054;-72
2023/03/12 09:55:15;;;;;;;2.10;0.88;;;;;;;5.19;46.21;99645.47;10587608;28;20051;-71
2023/03/12 10:00:28;;;;;;;2.28;0.80;;;;;;;5.57;45.85;99642.19;10587401;28;20440;-72
2023/03/12 10:05:46;;;;;;;3.53;1.00;;;;;;;5.68;44.42;99630.75;10568837;28;20108;-72
2023/03/12 10:10:54;;;;;;;1.98;0.80;;;;;;;5.55;44.78;99623.13;10587521;28;20534;-71
2023/03/12 10:16:27;;;;;;;2.03;0.90;;;;;;;5.56;42.42;99619.63;10584053;28;20412;-71
2023/03/12 10:21:47;;;;;;;1.13;0.88;;;;;;;5.70;42.78;99624.59;10589286;27;20051;-72
2023/03/12 10:26:50;;;;;;;1.77;0.80;;;;;;;5.90;43.16;99616.41;10610455;27;20046;-72
2023/03/12 10:32:11;;;;;;;4.35;1.48;;;;;;;5.72;43.21;99604.56;10611443;27;20039;-72
2023/03/12 10:37:27;;;;;;;3.42;0.80;;;;;;;6.05;43.06;99595.25;10618575;27;20035;-72
2023/03/12 10:42:32;;;;;;;2.28;1.10;;;;;;;6.77;41.66;99598.03;10567873;28;20043;-72
2023/03/12 10:47:37;;;;;;;2.55;0.60;;;;;;;6.44;38.13;99603.13;10585575;28;20046;-72
2023/03/12 10:52:39;;;;;;;1.85;0.82;;;;;;;6.64;38.49;99593.97;10586788;28;20035;-72
2023/03/12 10:57:41;;;;;;;2.83;0.82;;;;;;;6.49;40.20;99582.16;10585603;28;20052;-72
2023/03/12 11:02:47;;;;;;;2.10;0.80;;;;;;;6.55;38.79;99579.38;10585025;28;20039;-73
2023/03/12 11:07:50;;;;;;;3.50;0.90;;;;;;;6.28;42.14;99578.25;10585263;28;20040;-73
2023/03/12 11:13:01;;;;;;;2.55;0.90;;;;;;;5.99;42.24;99574.50;10584336;28;20430;-72
2023/03/12 11:18:36;;;;;;;2.08;0.82;;;;;;;6.35;41.85;99568.53;10584903;28;20130;-72
2023/03/12 11:23:47;;;;;;;2.63;1.05;;;;;;;6.26;39.76;99565.22;10563112;28;20074;-72
2023/03/12 11:28:50;;;;;;;;;;;;;;;6.54;40.67;99549.81;10584731;28;20426;-72
2023/03/12 11:33:56;;;;;;;11.63;3.83;;;;;;;6.65;41.29;99552.19;10583403;28;19919;-72
2023/03/12 11:39:17;;;;;;;2.30;1.00;;;;;;;7.29;40.28;99547.97;10566599;28;20036;-71
2023/03/12 11:44:45;;;;;;;2.58;0.88;;;;;;;8.07;40.00;99531.84;10583129;28;20089;-71
2023/03/12 11:49:53;;;;;;;3.22;0.80;;;;;;;8.49;40.96;99521.84;10541557;28;20476;-72
2023/03/12 11:55:13;;;;;;;2.22;0.70;;;;;;;8.21;40.36;99510.50;10583104;28;20043;-72
2023/03/12 12:00:24;;;;;;;4.85;0.90;;;;;;;7.61;41.14;99499.16;10566661;28;20052;-69
2023/03/12 12:05:49;;;;;;;1.55;0.93;;;;;;;7.99;39.23;99474.50;10583732;28;20118;-72
2023/03/12 12:11:13;;;;;;;0.85;0.50;;;;;;;7.84;37.63;99456.66;10583038;28;20043;-72
2023/03/12 12:16:29;;;;;;;1.92;0.90;;;;;;;8.01;37.91;99464.84;10583518;28;20047;-71
2023/03/12 12:22:13;;;;;;;1.92;0.70;;;;;;;7.71;37.46;99455.31;10566831;28;20036;-71
2023/03/12 12:27:21;;;;;;;3.42;1.08;;;;;;;7.63;38.95;99439.81;10563905;28;20055;-71
2023/03/12 12:32:41;;;;;;;;;;;;;;;7.63;38.65;99433.72;10581185;28;20109;-71
2023/03/12 12:38:06;;;;;;;2.30;1.15;;;;;;;7.56;40.85;99423.44;10581993;28;20030;-71
2023/03/12 12:43:47;;;;;;;2.88;1.27;;;;;;;7.45;41.84;99408.97;10581578;28;20039;-70
2023/03/12 12:48:55;;;;;;;2.80;1.40;;;;;;;7.65;41.57;99409.22;10569058;28;20056;-71
2023/03/12 12:54:20;;;;;;;2.78;1.10;;;;;;;7.25;41.49;99407.75;10579960;28;20040;-71
2023/03/12 12:59:50;;;;;;;4.63;1.83;;;;;;;7.20;45.07;99403.56;10581957;28;20489;-71
2023/03/12 13:05:00;;;;;;;1.48;1.13;;;;;;;7.06;44.19;99399.59;10583843;28;20039;-72
2023/03/12 13:10:06;;;;;;;2.45;1.17;;;;;;;6.86;44.36;99393.19;10582547;28;20449;-71
2023/03/12 13:15:27;;;;;;;4.60;1.20;;;;;;;6.72;45.62;99397.03;10563184;28;20048;-72
2023/03/12 13:20:34;;;;;;;4.57;1.45;;;;;;;6.69;44.21;99393.66;10582352;28;20046;-72
2023/03/12 13:25:52;;;;;;;2.97;1.45;;;;;;;6.65;46.83;99376.34;10582172;28;20054;-71
2023/03/12 13:30:53;;;;;;;4.00;1.88;;;;;;;6.61;46.76;99391.25;10563972;28;20458;-71
2023/03/12 13:36:22;;;;;;;4.00;1.10;;;;;;;6.48;47.03;99387.22;10580719;28;20047;-70
2023/03/12 13:41:36;;;;;;;3.15;1.40;;;;;;;6.55;46.03;99388.75;10582738;28;20461;-71
2023/03/12 13:46:39;;;;;;;3.63;1.40;;;;;;;6.47;46.95;99388.97;10588306;28;20039;-71
2023/03/12 13:51:52;;;;;;;2.90;1.10;;;;;;;6.67;46.19;99382.38;10589497;28;20131;-72
2023/03/12 13:56:58;;;;;;;3.85;1.35;;;;;;;6.42;45.96;99384.75;10570031;28;20396;-71
2023/03/12 14:02:05;;;;;;;3.13;1.70;;;;;;;6.58;46.17;99384.31;10588275;28;20457;-71
2023/03/12 14:07:45;;;;;;;3.00;1.52;;;;;;;6.65;46.53;99395.47;10587869;28;20046;-71
2023/03/12 14:13:05;;;;;;;3.33;1.33;;;;;;;6.58;45.84;99394.78;10417855;28;20042;-71
2023/03/12 14:18:19;;;;;;;3.17;0.90;;;;;;;6.23;46.47;99379.13;10416823;28;20049;-70
2023/03/12 14:23:23;;;;;;;2.50;0.90;;;;;;;6.04;49.52;99383.94;10398958;28;20041;-72
2023/03/12 14:28:26;;;;;;;2.58;1.00;;;;;;;5.86;50.69;99382.59;10415298;28;20057;-72
2023/03/12 14:33:34;;;;;;;5.47;1.50;;;;;;;5.93;51.45;99363.34;10416882;28;20454;-72
2023/03/12 14:38:43;;;;;;;3.90;1.40;;;;;;;5.67;56.33;99369.13;10416045;28;20384;-72
2023/03/12 14:43:45;;;;;;;2.85;1.63;;;;;;;5.36;61.04;99366.34;10552557;28;20056;-71
2023/03/12 14:48:52;;;;;;;4.50;2.50;;;;;;;4.99;66.53;99371.41;10586099;28;20040;-71
2023/03/12 14:53:54;;;;;;;3.40;1.70;;;;;;;4.86;70.98;99360.38;10586015;28;20500;-71
2023/03/12 14:58:58;;;;;;;3.67;1.83;;;;;;;4.79;74.32;99354.44;10585604;28;20044;-71
2023/03/12 15:04:03;;;;;;;3.70;1.60;;;;;;;4.70;77.61;99359.84;10566649;28;20044;-71
2023/03/12 15:09:07;;;;;;;3.55;1.90;;;;;;;4.63;82.01;99350.41;10585411;28;20066;-71
2023/03/12 15:14:14;;;;;;;5.38;2.20;;;;;;;4.40;82.22;99349.97;10565957;28;20399;-72
2023/03/12 15:19:22;;;;;;;4.07;1.77;;;;;;;4.17;85.06;99330.44;10586512;28;20479;-72
2023/03/12 15:24:24;;;;;;;3.85;1.70;;;;;;;4.25;84.89;99335.47;10584096;28;20047;-72
2023/03/12 15:29:28;;;;;;;4.05;1.73;;;;;;;4.25;83.74;99325.94;10540447;22;20040;-70
2023/03/12 15:34:38;;;;;;;3.92;2.30;;;;;;;4.09;86.11;99292.44;10540627;28;20093;-70
2023/03/12 15:39:50;;;;;;;6.10;2.30;;;;;;;4.22;86.64;99286.97;10542198;28;20044;-71
2023/03/12 15:45:02;;;;;;;3.47;2.40;;;;;;;4.25;84.63;99278.25;10541684;28;20039;-72
2023/03/12 15:50:17;;;;;;;5.28;2.30;;;;;;;4.21;85.64;99274.00;10541654;28;20489;-71
2023/03/12 15:55:26;;;;;;;8.25;3.47;;;;;;;3.94;87.99;99275.31;10541511;28;20051;-71
2023/03/12 16:00:42;;;;;;;5.88;2.95;;;;;;;4.21;87.16;99263.59;10506434;28;20066;-71
2023/03/12 16:05:45;;;;;;;6.65;5.43;;;;;;;4.23;86.93;99269.63;10541880;28;20043;-70
2023/03/12 16:10:48;;;;;;;5.90;4.10;;;;;;;4.08;88.15;99264.72;10541468;28;20050;-70
2023/03/12 16:15:51;;;;;;;6.03;3.78;;;;;;;4.22;87.57;99255.75;10523213;28;20066;-72
2023/03/12 16:20:52;;;;;;;7.15;2.80;;;;;;;4.10;88.73;99242.13;10540364;28;20051;-71
2023/03/12 16:25:56;;;;;;;6.35;5.35;;;;;;;4.42;86.27;99251.91;10540927;28;20090;-71
2023/03/12 16:30:58;;;;;;;5.13;3.45;;;;;;;4.32;86.97;99247.78;10540484;28;20044;-72
2023/03/12 16:36:00;;;;;;;7.28;4.70;;;;;;;4.62;85.34;99251.53;10522550;28;20408;-71
2023/03/12 16:41:02;;;;;;;5.90;3.60;;;;;;;4.11;89.07;99255.09;10540395;28;20048;-72
2023/03/12 16:46:08;;;;;;;6.13;2.90;;;;;;;4.33;87.43;99246.88;10521611;28;20054;-70
2023/03/12 16:51:14;;;;;;;5.47;3.47;;;;;;;4.27;89.36;99258.28;10540538;28;20101;-71
2023/03/12 16:56:19;;;;;;;6.35;4.43;;;;;;;4.18;88.68;99256.69;10541052;28;20294;-72
2023/03/12 17:01:23;;;;;;;7.38;6.55;;;;;;;4.59;86.40;99246.38;10540550;28;20048;-70
2023/03/12 17:06:26;;;;;;;5.57;3.53;;;;;;;4.37;87.64;99251.16;10520621;28;20439;-71
2023/03/12 17:11:31;;;;;;;6.00;3.53;;;;;;;4.44;87.39;99250.16;10495398;28;20040;-72
2023/03/12 17:16:33;;;;;;;3.63;2.58;;;;;;;4.52;88.68;99233.50;10509042;28;20465;-71
2023/03/12 17:21:36;;;;;;;4.75;2.35;;;;;;;4.63;89.63;99235.03;10507234;28;20080;-74
2023/03/12 17:26:38;;;;;;;2.63;1.60;;;;;;;4.70;90.48;99236.63;10508759;28;20067;-71
2023/03/12 17:31:40;;;;;;;3.90;1.83;;;;;;;4.90;89.78;99246.59;10473655;28;20143;-71
2023/03/12 17:36:43;;;;;;;2.15;1.67;;;;;;;5.02;90.31;99269.78;10499174;28;20496;-71
2023/03/12 17:41:44;;;;;;;2.00;1.48;;;;;;;5.05;91.18;99244.53;10530830;28;20130;-70
2023/03/12 17:46:46;;;;;;;1.92;1.70;;;;;;;5.00;92.29;99243.78;10548850;28;20040;-71
2023/03/12 17:52:01;;;;;;;2.10;1.55;;;;;;;5.15;91.65;99232.16;10523972;28;20039;-70
2023/03/12 17:57:03;;;;;;;1.40;1.27;;;;;;;5.29;90.77;99248.31;10537580;28;20044;-71
2023/03/12 18:02:06;;;;;;;1.52;1.20;;;;;;;5.35;91.03;99257.75;10487106;28;20049;-71
2023/03/12 18:07:08;;;;;;;2.65;1.25;;;;;;;5.54;90.47;99240.81;10494943;28;20412;-71
2023/03/12 18:12:11;;;;;;;2.05;1.05;;;;;;;5.53;91.02;99244.31;10527179;28;20048;-69
2023/03/12 18:17:13;;;;;;;0.82;0.80;;;;;;;5.74;90.20;99250.72;10527317;28;20075;-70
2023/03/12 18:22:18;;;;;;;2.28;1.40;;;;;;;5.79;90.69;99242.78;10517519;28;20454;-71
2023/03/12 18:27:20;;;;;;;1.42;1.00;;;;;;;6.01;89.63;99256.19;10485407;28;20080;-71
2023/03/12 18:32:22;;;;;;;1.63;1.08;;;;;;;6.01;90.04;99244.00;10486548;28;20036;-71
2023/03/12 18:37:24;;;;;;;0.90;0.80;;;;;;;6.01;91.07;99257.03;10506235;28;20453;-72
2023/03/12 18:42:27;;;;;;;0.82;0.80;;;;;;;6.21;89.41;99242.63;10489155;28;20045;-72
2023/03/12 18:47:30;;;;;;;1.85;1.08;;;;;;;6.25;89.99;99242.50;10505923;28;20047;-71
2023/03/12 18:52:32;;;;;;;1.42;1.23;;;;;;;6.38;89.30;99237.81;10506244;28;20033;-71
2023/03/12 18:57:34;;;;;;;1.73;1.42;;;;;;;6.28;90.60;99245.00;10507030;28;20540;-71
2023/03/12 19:02:37;;;;;;;1.20;1.02;;;;;;;6.42;90.45;99241.16;10531446;28;20032;-71
2023/03/12 19:07:39;;;;;;;1.30;0.88;;;;;;;6.49;90.54;99255.78;10548882;28;20036;-71
2023/03/12 19:12:41;;;;;;;1.08;0.93;;;;;;;6.58;90.75;99260.75;10547293;28;20397;-71
2023/03/12 19:17:54;;;;;;;1.30;1.10;;;;;;;6.71;90.71;99269.94;10546161;28;20048;-71
2023/03/12 19:22:56;;;;;;;1.20;1.10;;;;;;;6.70;91.36;99262.16;10543725;28;20493;-70
2023/03/12 19:27:57;;;;;;;1.05;0.90;;;;;;;6.79;91.42;99252.31;10544032;28;20043;-71
2023/03/12 19:32:59;;;;;;;2.05;1.20;;;;;;;6.95;90.66;99254.44;10525208;28;20067;-70
2023/03/12 19:38:01;;;;;;;0.95;0.80;;;;;;;6.89;91.67;99247.66;10542601;28;20047;-70
2023/03/12 19:43:03;;;;;;;1.15;0.88;;;;;;;6.87;91.69;99249.47;10542686;28;20044;-71
2023/03/12 19:48:05;;;;;;;1.27;0.80;;;;;;;6.90;91.76;99248.50;10542614;28;20036;-71
2023/03/12 19:53:07;;;;;;;1.85;0.80;;;;;;;6.92;91.72;99265.00;10524181;28;20098;-71
2023/03/12 19:58:09;;;;;;;2.10;0.98;;;;;;;7.06;90.46;99273.31;10518340;28;20047;-71
2023/03/12 20:03:10;;;;;;;1.67;0.85;;;;;;;6.94;91.39;99282.34;10498951;28;20056;-70
2023/03/12 20:08:12;;;;;;;1.58;0.82;;;;;;;6.97;91.13;99287.50;10481895;28;20109;-71
2023/03/12 20:13:16;;;;;;;2.47;1.10;;;;;;;7.00;91.35;99287.41;10482638;28;20114;-71
2023/03/12 20:18:18;;;;;;;2.72;0.90;;;;;;;7.12;90.75;99285.31;10483444;28;20383;-72
2023/03/12 20:23:21;;;;;;;2.30;1.13;;;;;;;7.08;91.47;99288.06;10482552;28;20053;-71
2023/03/12 20:28:22;;;;;;;3.15;1.00;;;;;;;7.15;91.38;99288.72;10500473;28;20048;-71
2023/03/12 20:33:24;;;;;;;1.77;1.38;;;;;;;7.10;91.71;99293.22;10499995;28;20051;-71
2023/03/12 20:38:26;;;;;;;1.85;1.30;;;;;;;7.19;91.86;99279.88;10482372;28;20045;-71
2023/03/12 20:43:28;;;;;;;1.58;1.08;;;;;;;7.27;91.23;99274.41;10500100;28;20040;-72
2023/03/12 20:48:29;;;;;;;2.08;1.08;;;;;;;7.34;91.32;99276.78;10500077;28;20044;-71
2023/03/12 20:53:31;;;;;;;3.25;0.90;;;;;;;7.40;90.79;99287.97;10470638;28;20094;-71
2023/03/12 20:58:34;;;;;;;1.63;0.80;;;;;;;7.36;91.11;99279.38;10534967;28;20126;-72
2023/03/12 21:03:36;;;;;;;3.38;1.10;;;;;;;7.48;90.27;99271.16;10549455;28;20040;-71
2023/03/12 21:08:38;;;;;;;1.77;0.80;;;;;;;7.50;90.46;99282.41;10548956;28;20044;-71
2023/03/12 21:13:40;;;;;;;1.55;0.80;;;;;;;7.61;89.71;99289.91;10548418;28;20400;-71
2023/03/12 21:18:41;;;;;;;3.08;0.90;;;;;;;7.74;89.06;99290.38;10549164;28;20048;-71
2023/03/12 21:23:44;;;;;;;2.35;1.08;;;;;;;7.75;88.82;99289.50;10547984;28;20054;-70
2023/03/12 21:28:46;;;;;;;5.85;1.10;;;;;;;7.79;88.98;99286.72;10529731;28;20043;-71
2023/03/12 21:33:48;;;;;;;2.03;1.17;;;;;;;7.86;88.45;99276.91;10547789;28;20478;-71
2023/03/12 21:38:53;;;;;;;3.80;1.50;;;;;;;8.03;87.44;99265.88;10547734;28;20143;-71
2023/03/12 21:43:55;;;;;;;3.17;1.30;;;;;;;7.82;89.01;99272.66;10548140;28;20032;-70
2023/03/12 21:48:57;;;;;;;3.38;1.40;;;;;;;7.90;88.59;99262.81;10548120;28;20386;-72
2023/03/12 21:53:59;;;;;;;4.43;1.50;;;;;;;8.03;88.03;99251.03;10547362;28;20028;-70
2023/03/12 21:59:01;;;;;;;3.65;1.70;;;;;;;7.99;88.74;99243.34;10547254;28;20047;-71
2023/03/12 22:04:04;;;;;;;5.35;2.17;;;;;;;8.10;88.12;99238.56;10529137;28;20040;-71
2023/03/12 22:09:06;;;;;;;6.75;1.98;;;;;;;8.15;87.75;99235.81;10546929;28;20078;-70
2023/03/12 22:14:08;;;;;;;4.80;2.30;;;;;;;8.21;87.16;99252.16;10546720;28;20561;-70
2023/03/12 22:19:09;;;;;;;6.18;1.98;;;;;;;8.27;87.06;99240.59;10547239;28;20054;-71
2023/03/12 22:24:11;;;;;;;6.03;2.22;;;;;;;8.20;87.74;99236.50;10547266;28;20036;-71
2023/03/12 22:29:13;;;;;;;6.55;2.83;;;;;;;8.21;87.81;99231.22;10546542;28;20127;-72
2023/03/12 22:34:15;;;;;;;8.18;3.00;;;;;;;8.24;87.51;99220.63;10528205;28;20070;-72
2023/03/12 22:39:17;;;;;;;8.30;2.50;;;;;;;8.45;85.98;99218.19;10546411;28;20044;-70
2023/03/12 22:44:18;;;;;;;6.57;2.45;;;;;;;8.32;86.81;99213.38;10545972;28;20063;-70
2023/03/12 22:49:20;;;;;;;8.93;2.63;;;;;;;8.43;85.71;99206.91;10527355;28;20055;-71
2023/03/12 22:54:22;;;;;;;6.78;2.78;;;;;;;8.45;85.84;99221.66;10545558;28;20032;-71
2023/03/12 22:59:23;;;;;;;8.48;2.35;;;;;;;8.29;86.65;99212.63;10545811;28;20128;-71
2023/03/12 23:04:25;;;;;;;8.68;2.85;;;;;;;8.17;87.63;99210.44;10544925;28;20036;-72
2023/03/12 23:09:27;;;;;;;9.43;3.33;;;;;;;8.24;87.67;99212.78;10545891;28;20043;-72
2023/03/12 23:14:29;;;;;;;8.90;2.97;;;;;;;8.36;86.83;99211.47;10526465;28;20097;-70
2023/03/12 23:19:32;;;;;;;10.45;2.97;;;;;;;8.38;86.96;99214.94;10544745;28;20048;-71
2023/03/12 23:24:34;;;;;;;9.70;3.08;;;;;;;8.41;86.99;99212.22;10525827;28;20048;-72
2023/03/12 23:29:36;;;;;;;9.05;3.35;;;;;;;8.46;87.02;99210.28;10543664;28;20047;-72
2023/03/12 23:34:38;;;;;;;6.90;2.75;;;;;;;8.44;87.34;99212.09;10544171;28;20036;-72
2023/03/12 23:39:39;;;;;;;9.52;3.35;;;;;;;8.58;86.40;99204.56;10526231;28;20048;-73
2023/03/12 23:44:54;;;;;;;10.70;3.47;;;;;;;8.59;86.57;99203.69;10543801;28;20036;-71
2023/03/12 23:49:56;;;;;;;13.77;3.55;;;;;;;8.60;86.68;99207.16;10525004;28;20486;-72
2023/03/12 23:54:58;;;;;;;9.60;3.47;;;;;;;8.55;86.64;99198.63;10526558;28;20040;-72